createdAt,value
2018-12-09T00:00:26.377Z,16.37
2018-12-09T00:03:01.185Z,16.23
2018-12-09T00:05:35.862Z,13.43
2018-12-09T00:08:13.380Z,13.40
2018-12-09T00:10:47.418Z,11.23
2018-12-09T00:13:21.294Z,9.77
2018-12-09T00:15:55.722Z,10.20
2018-12-09T00:18:30.687Z,11.30
2018-12-09T00:21:04.973Z,9.70
2018-12-09T00:23:38.953Z,10.60
2018-12-09T00:26:13.069Z,10.50
2018-12-09T00:28:48.385Z,11.40
2018-12-09T00:31:22.760Z,10.13
2018-12-09T00:33:57.236Z,10.90
2018-12-09T00:36:32.186Z,10.93
2018-12-09T00:39:06.147Z,11.43
2018-12-09T00:41:42.004Z,10.33
2018-12-09T00:44:16.435Z,12.30
2018-12-09T00:46:51.115Z,12.80
2018-12-09T00:49:25.605Z,11.77
2018-12-09T00:52:00.474Z,12.00
2018-12-09T00:54:36.586Z,11.53
2018-12-09T00:57:10.797Z,12.50
2018-12-09T00:59:44.904Z,11.13
2018-12-09T01:02:19.019Z,12.53
2018-12-09T01:04:54.148Z,12.17
2018-12-09T01:07:28.236Z,12.03
2018-12-09T01:10:02.962Z,13.53
2018-12-09T01:12:39.385Z,15.83
2018-12-09T01:15:13.369Z,15.27
2018-12-09T01:17:47.500Z,17.67
2018-12-09T01:20:21.242Z,15.43
2018-12-09T01:22:55.259Z,14.17
2018-12-09T01:25:29.675Z,14.03
2018-12-09T01:28:04.897Z,12.97
2018-12-09T01:30:38.800Z,11.40
2018-12-09T01:33:14.223Z,12.77
2018-12-09T01:35:49.406Z,14.27
2018-12-09T01:38:23.682Z,14.37
2018-12-09T01:40:58.125Z,12.17
2018-12-09T01:43:32.175Z,13.40
2018-12-09T01:46:07.310Z,14.20
2018-12-09T01:48:42.764Z,17.70
2018-12-09T01:51:18.007Z,14.83
2018-12-09T01:54:22.292Z,15.73
2018-12-09T01:56:57.884Z,13.00
2018-12-09T01:59:33.242Z,13.30
2018-12-09T02:02:07.427Z,12.17
2018-12-09T02:04:42.521Z,15.63
2018-12-09T02:07:17.822Z,13.37
2018-12-09T02:09:52.965Z,14.17
2018-12-09T02:12:28.989Z,13.43
2018-12-09T02:15:03.213Z,13.30
2018-12-09T02:17:37.447Z,13.93
2018-12-09T02:20:11.400Z,15.13
2018-12-09T02:22:45.350Z,13.20
2018-12-09T02:25:19.574Z,12.90
2018-12-09T02:27:54.277Z,11.67
2018-12-09T02:30:28.701Z,11.20
2018-12-09T02:33:04.719Z,10.67
2018-12-09T02:35:44.800Z,12.57
2018-12-09T02:38:18.574Z,11.87
2018-12-09T02:40:52.723Z,11.30
2018-12-09T02:43:26.794Z,10.03
2018-12-09T02:46:00.883Z,10.87
2018-12-09T02:48:35.728Z,10.67
2018-12-09T02:51:11.862Z,10.97
2018-12-09T02:53:47.236Z,10.80
2018-12-09T02:56:21.220Z,9.07
2018-12-09T02:58:56.250Z,11.03
2018-12-09T03:01:30.077Z,9.53
2018-12-09T03:04:04.264Z,12.47
2018-12-09T03:06:39.192Z,12.80
2018-12-09T03:09:13.227Z,11.07
2018-12-09T03:11:47.350Z,12.20
2018-12-09T03:14:21.330Z,12.17
2018-12-09T03:16:55.965Z,12.43
2018-12-09T03:19:31.273Z,10.50
2018-12-09T03:22:08.457Z,10.47
2018-12-09T03:24:42.406Z,14.07
2018-12-09T03:27:17.054Z,13.40
2018-12-09T03:29:51.076Z,13.90
2018-12-09T03:32:25.488Z,10.70
2018-12-09T03:34:59.541Z,13.50
2018-12-09T03:37:33.743Z,12.00
2018-12-09T03:40:07.644Z,9.93
2018-12-09T03:42:41.946Z,12.17
2018-12-09T03:45:15.969Z,10.47
2018-12-09T03:47:49.887Z,12.17
2018-12-09T03:50:23.727Z,13.07
2018-12-09T03:52:59.691Z,11.97
2018-12-09T03:55:34.610Z,10.57
2018-12-09T03:58:08.860Z,14.83
2018-12-09T04:00:43.263Z,12.90
2018-12-09T04:03:17.452Z,12.37
2018-12-09T04:05:51.350Z,13.83
2018-12-09T04:08:25.341Z,11.70
2018-12-09T04:10:59.459Z,11.07
2018-12-09T04:13:33.136Z,9.80
2018-12-09T04:16:07.144Z,12.67
2018-12-09T04:18:41.135Z,11.43
2018-12-09T04:21:15.903Z,11.13
2018-12-09T04:23:50.560Z,11.63
2018-12-09T04:26:24.745Z,9.73
2018-12-09T04:28:58.777Z,11.77
2018-12-09T04:31:32.673Z,9.43
2018-12-09T04:34:08.201Z,11.30
2018-12-09T04:36:44.258Z,12.23
2018-12-09T04:39:19.847Z,12.47
2018-12-09T04:41:54.874Z,14.10
2018-12-09T04:44:29.047Z,10.43
2018-12-09T04:47:02.540Z,14.53
2018-12-09T04:49:36.710Z,9.87
2018-12-09T04:52:10.885Z,9.20
2018-12-09T04:54:45.534Z,10.37
2018-12-09T04:57:19.459Z,7.80
2018-12-09T04:59:56.816Z,8.63
2018-12-09T05:02:30.697Z,8.50
2018-12-09T05:05:05.078Z,8.13
2018-12-09T05:07:39.887Z,9.27
2018-12-09T05:10:13.844Z,9.50
2018-12-09T05:12:48.086Z,10.03
2018-12-09T05:15:22.229Z,10.07
2018-12-09T05:17:57.541Z,9.30
2018-12-09T05:20:31.404Z,11.23
2018-12-09T05:23:06.200Z,10.73
2018-12-09T05:25:40.290Z,12.47
2018-12-09T05:28:15.894Z,12.43
2018-12-09T05:30:51.806Z,12.27
2018-12-09T05:33:25.883Z,12.90
2018-12-09T05:36:00.144Z,11.23
2018-12-09T05:38:35.270Z,10.77
2018-12-09T05:41:09.401Z,10.80
2018-12-09T05:43:42.873Z,11.57
2018-12-09T05:46:23.307Z,13.10
2018-12-09T05:48:59.889Z,10.80
2018-12-09T05:51:34.012Z,15.20
2018-12-09T05:54:19.535Z,12.83
2018-12-09T05:56:56.206Z,11.73
2018-12-09T05:59:31.159Z,11.00
2018-12-09T06:02:14.232Z,12.50
2018-12-09T06:04:49.123Z,10.40
2018-12-09T06:07:24.262Z,12.07
2018-12-09T06:09:58.559Z,10.82
2018-12-09T06:12:32.498Z,12.97
2018-12-09T06:15:06.421Z,12.70
2018-12-09T06:17:40.490Z,12.93
2018-12-09T06:20:14.821Z,18.43
2018-12-09T06:22:48.744Z,13.37
2018-12-09T06:25:23.584Z,14.40
2018-12-09T06:28:09.000Z,11.45
2018-12-09T06:30:43.015Z,11.33
2018-12-09T06:33:17.775Z,11.30
2018-12-09T06:35:52.185Z,11.07
2018-12-09T06:38:26.624Z,14.33
2018-12-09T06:41:00.743Z,11.43
2018-12-09T06:43:35.210Z,11.83
2018-12-09T06:46:12.379Z,14.90
2018-12-09T06:48:47.434Z,13.03
2018-12-09T06:51:22.952Z,11.23
2018-12-09T06:53:58.730Z,12.55
2018-12-09T06:56:34.235Z,11.90
2018-12-09T06:59:09.799Z,12.27
2018-12-09T07:01:43.350Z,12.07
2018-12-09T07:04:18.225Z,11.17
2018-12-09T07:06:52.171Z,12.57
2018-12-09T07:09:26.386Z,14.23
2018-12-09T07:12:00.506Z,12.35
2018-12-09T07:14:35.232Z,15.30
2018-12-09T07:17:12.489Z,12.87
2018-12-09T07:19:47.229Z,13.63
2018-12-09T07:22:21.404Z,12.07
2018-12-09T07:24:57.322Z,12.27
2018-12-09T07:27:31.638Z,12.17
2018-12-09T07:30:05.864Z,12.03
2018-12-09T07:32:40.340Z,14.03
2018-12-09T07:35:16.104Z,14.77
2018-12-09T07:37:51.287Z,13.73
2018-12-09T07:40:25.467Z,14.60
2018-12-09T07:42:59.389Z,12.28
2018-12-09T07:45:34.297Z,12.37
2018-12-09T07:48:08.199Z,12.93
2018-12-09T07:50:42.999Z,11.20
2018-12-09T07:53:16.620Z,11.60
2018-12-09T07:55:50.992Z,12.17
2018-12-09T07:58:25.234Z,11.43
2018-12-09T08:01:00.016Z,12.13
2018-12-09T08:03:34.440Z,13.00
2018-12-09T08:06:09.215Z,12.67
2018-12-09T08:08:43.759Z,12.33
2018-12-09T08:11:18.586Z,10.03
2018-12-09T08:13:53.660Z,9.77
2018-12-09T08:16:29.033Z,9.40
2018-12-09T08:19:10.799Z,12.80
2018-12-09T08:21:46.932Z,12.07
2018-12-09T08:24:20.742Z,10.63
2018-12-09T08:26:56.084Z,9.97
2018-12-09T08:29:35.703Z,11.35
2018-12-09T08:32:10.901Z,11.53
2018-12-09T08:34:44.658Z,12.00
2018-12-09T08:37:19.203Z,11.90
2018-12-09T08:39:53.558Z,9.38
2018-12-09T08:42:28.406Z,10.73
2018-12-09T08:45:03.254Z,10.07
2018-12-09T08:47:38.574Z,11.17
2018-12-09T08:50:12.556Z,9.70
2018-12-09T08:52:46.792Z,10.60
2018-12-09T08:55:20.987Z,9.10
2018-12-09T08:57:55.075Z,10.83
2018-12-09T09:00:29.512Z,10.43
2018-12-09T09:03:05.634Z,12.03
2018-12-09T09:05:39.832Z,10.33
2018-12-09T09:08:14.003Z,11.50
2018-12-09T09:10:48.230Z,9.40
2018-12-09T09:13:21.996Z,9.97
2018-12-09T09:15:56.769Z,10.03
2018-12-09T09:18:31.275Z,9.07
2018-12-09T09:21:05.393Z,10.10
2018-12-09T09:23:39.412Z,10.27
2018-12-09T09:26:13.663Z,10.10
2018-12-09T09:28:49.211Z,8.93
2018-12-09T09:31:24.527Z,9.20
2018-12-09T09:33:58.594Z,8.97
2018-12-09T09:36:32.769Z,9.73
2018-12-09T09:39:07.188Z,8.33
2018-12-09T09:41:41.412Z,13.27
2018-12-09T09:44:15.459Z,9.10
2018-12-09T09:46:52.035Z,10.67
2018-12-09T09:49:26.280Z,12.63
2018-12-09T09:52:00.471Z,8.50
2018-12-09T09:54:35.449Z,9.23
2018-12-09T09:57:09.197Z,7.43
2018-12-09T09:59:43.211Z,7.97
2018-12-09T10:02:17.529Z,8.60
2018-12-09T10:04:52.661Z,10.60
2018-12-09T10:07:27.917Z,7.65
2018-12-09T10:10:01.882Z,8.10
2018-12-09T10:12:37.266Z,10.63
2018-12-09T10:15:11.332Z,9.40
2018-12-09T10:17:45.469Z,9.40
2018-12-09T10:20:20.766Z,8.97
2018-12-09T10:22:55.651Z,10.30
2018-12-09T10:25:30.068Z,7.70
2018-12-09T10:28:04.169Z,9.30
2018-12-09T10:30:42.062Z,8.77
2018-12-09T10:33:16.495Z,7.53
2018-12-09T10:35:50.340Z,9.40
2018-12-09T10:38:24.450Z,8.93
2018-12-09T10:40:58.229Z,9.67
2018-12-09T10:43:32.139Z,8.23
2018-12-09T10:46:06.263Z,9.47
2018-12-09T10:48:40.487Z,8.03
2018-12-09T10:51:14.565Z,8.53
2018-12-09T10:53:49.683Z,8.63
2018-12-09T10:56:26.069Z,8.15
2018-12-09T10:59:01.555Z,7.80
2018-12-09T11:01:44.688Z,8.10
2018-12-09T11:04:18.226Z,7.93
2018-12-09T11:06:52.947Z,7.97
2018-12-09T11:09:27.680Z,8.23
2018-12-09T11:12:01.951Z,7.58
2018-12-09T11:14:36.035Z,9.77
2018-12-09T11:17:10.548Z,9.87
2018-12-09T11:19:45.103Z,10.93
2018-12-09T11:22:18.998Z,11.17
2018-12-09T11:24:53.891Z,11.60
2018-12-09T11:27:27.970Z,13.90
2018-12-09T11:30:02.262Z,13.77
2018-12-09T11:32:35.938Z,11.50
2018-12-09T11:35:10.060Z,12.50
2018-12-09T11:37:43.982Z,13.57
2018-12-09T11:40:19.783Z,15.73
2018-12-09T11:42:54.011Z,18.17
2018-12-09T11:45:28.923Z,18.33
2018-12-09T11:48:03.152Z,15.00
2018-12-09T11:50:37.451Z,15.53
2018-12-09T11:53:11.502Z,14.50
2018-12-09T11:55:45.293Z,17.37
2018-12-09T11:58:19.622Z,15.70
2018-12-09T12:00:53.375Z,18.67
2018-12-09T12:03:27.589Z,17.30
2018-12-09T12:06:03.109Z,17.70
2018-12-09T12:08:38.176Z,17.97
2018-12-09T12:11:14.237Z,19.83
2018-12-09T12:13:48.282Z,19.70
2018-12-09T12:16:22.683Z,16.63
2018-12-09T12:18:57.007Z,16.45
2018-12-09T12:21:30.772Z,18.07
2018-12-09T12:24:04.916Z,16.20
2018-12-09T12:26:41.221Z,19.33
2018-12-09T12:29:15.022Z,16.00
2018-12-09T12:31:49.175Z,16.63
2018-12-09T12:34:23.520Z,15.03
2018-12-09T12:36:58.790Z,16.20
2018-12-09T12:39:33.122Z,13.40
2018-12-09T12:42:07.151Z,15.93
2018-12-09T12:44:41.182Z,13.43
2018-12-09T12:47:16.162Z,11.80
2018-12-09T12:49:50.184Z,14.30
2018-12-09T12:52:24.061Z,12.13
2018-12-09T12:54:58.297Z,17.23
2018-12-09T12:57:32.511Z,16.50
2018-12-09T13:00:11.284Z,14.47
2018-12-09T13:02:45.956Z,15.60
2018-12-09T13:05:20.909Z,15.60
2018-12-09T13:07:56.456Z,16.27
2018-12-09T13:10:32.692Z,20.33
2018-12-09T13:13:06.985Z,19.40
2018-12-09T13:15:41.574Z,18.67
2018-12-09T13:18:16.173Z,16.40
2018-12-09T13:20:51.245Z,16.97
2018-12-09T13:23:25.434Z,15.90
2018-12-09T13:26:00.494Z,15.20
2018-12-09T13:28:34.727Z,16.07
2018-12-09T13:31:09.163Z,17.87
2018-12-09T13:33:43.325Z,18.37
2018-12-09T13:36:17.408Z,21.37
2018-12-09T13:38:51.222Z,25.67
2018-12-09T13:41:25.553Z,21.90
2018-12-09T13:43:59.234Z,17.10
2018-12-09T13:46:33.468Z,17.93
2018-12-09T13:49:07.247Z,19.90
2018-12-09T13:51:41.121Z,18.17
2018-12-09T13:54:15.542Z,18.47
2018-12-09T13:56:50.540Z,17.10
2018-12-09T13:59:27.528Z,18.03
2018-12-09T14:02:02.061Z,18.00
2018-12-09T14:04:37.994Z,18.13
2018-12-09T14:07:12.202Z,16.70
2018-12-09T14:09:46.294Z,18.40
2018-12-09T14:12:21.532Z,16.50
2018-12-09T14:14:55.343Z,17.10
2018-12-09T14:17:29.281Z,19.13
2018-12-09T14:20:05.467Z,15.67
2018-12-09T14:22:39.715Z,17.97
2018-12-09T14:25:14.933Z,18.63
2018-12-09T14:27:49.553Z,16.40
2018-12-09T14:30:24.509Z,14.90
2018-12-09T14:32:59.034Z,16.17
2018-12-09T14:35:32.799Z,16.95
2018-12-09T14:38:06.625Z,14.10
2018-12-09T14:40:40.404Z,13.10
2018-12-09T14:43:15.183Z,14.50
2018-12-09T14:45:49.290Z,13.07
2018-12-09T14:48:23.117Z,12.50
2018-12-09T14:50:57.359Z,15.67
2018-12-09T14:53:31.142Z,11.60
2018-12-09T14:56:09.863Z,10.03
2018-12-09T14:58:52.376Z,11.07
2018-12-09T15:01:27.246Z,10.23
2018-12-09T15:04:01.333Z,9.90
2018-12-09T15:06:35.310Z,9.40
2018-12-09T15:09:09.988Z,9.07
2018-12-09T15:11:45.997Z,10.67
2018-12-09T15:14:20.547Z,9.57
2018-12-09T15:16:54.601Z,10.47
2018-12-09T15:19:28.786Z,11.53
2018-12-09T15:22:02.477Z,11.07
2018-12-09T15:24:41.355Z,10.67
2018-12-09T15:27:12.359Z,10.67
2018-12-09T15:29:46.523Z,10.37
2018-12-09T15:32:20.311Z,12.03
2018-12-09T15:34:54.604Z,13.00
2018-12-09T15:37:28.629Z,11.03
2018-12-09T15:40:02.939Z,14.80
2018-12-09T15:42:36.786Z,10.60
2018-12-09T15:45:11.927Z,12.07
2018-12-09T15:47:45.795Z,12.53
2018-12-09T15:50:19.758Z,13.17
2018-12-09T15:52:53.686Z,11.70
2018-12-09T15:55:27.592Z,12.37
2018-12-09T15:58:01.158Z,13.03
2018-12-09T16:00:42.459Z,10.60
2018-12-09T16:03:17.100Z,12.70
2018-12-09T16:05:51.298Z,11.90
2018-12-09T16:08:25.341Z,11.30
2018-12-09T16:10:59.428Z,13.80
2018-12-09T16:13:35.705Z,15.37
2018-12-09T16:16:10.718Z,13.57
2018-12-09T16:18:44.640Z,12.27
2018-12-09T16:21:18.815Z,12.57
2018-12-09T16:23:52.961Z,13.17
2018-12-09T16:26:27.131Z,14.17
2018-12-09T16:29:01.680Z,10.23
2018-12-09T16:31:36.091Z,14.90
2018-12-09T16:34:09.973Z,11.70
2018-12-09T16:36:43.603Z,12.20
2018-12-09T16:39:17.974Z,12.17
2018-12-09T16:41:53.639Z,12.53
2018-12-09T16:44:29.536Z,11.03
2018-12-09T16:47:03.598Z,13.23
2018-12-09T16:49:37.618Z,10.83
2018-12-09T16:52:12.891Z,12.70
2018-12-09T16:54:46.937Z,14.13
2018-12-09T16:57:21.586Z,13.03
2018-12-09T16:59:56.581Z,13.17
2018-12-09T17:02:30.687Z,12.63
2018-12-09T17:05:04.754Z,12.77
2018-12-09T17:07:42.145Z,10.37
2018-12-09T17:10:15.366Z,10.27
2018-12-09T17:12:49.193Z,9.70
2018-12-09T17:15:23.602Z,12.10
2018-12-09T17:17:58.453Z,10.03
2018-12-09T17:20:34.850Z,10.40
2018-12-09T17:23:09.407Z,10.93
2018-12-09T17:25:43.542Z,10.17
2018-12-09T17:28:19.213Z,9.17
2018-12-09T17:30:53.342Z,13.83
2018-12-09T17:33:26.936Z,11.37
2018-12-09T17:36:00.803Z,15.10
2018-12-09T17:38:35.452Z,11.60
2018-12-09T17:41:09.654Z,11.60
2018-12-09T17:43:44.498Z,11.43
2018-12-09T17:46:18.749Z,10.87
2018-12-09T17:48:53.720Z,10.57
2018-12-09T17:51:28.152Z,10.67
2018-12-09T17:54:02.135Z,10.87
2018-12-09T17:56:36.013Z,10.03
2018-12-09T17:59:10.160Z,9.83
2018-12-09T18:01:44.426Z,9.23
2018-12-09T18:04:19.415Z,10.37
2018-12-09T18:06:53.272Z,10.47
2018-12-09T18:09:27.181Z,9.60
2018-12-09T18:12:01.354Z,10.63
2018-12-09T18:14:35.527Z,12.53
2018-12-09T18:17:09.404Z,9.17
2018-12-09T18:19:43.877Z,10.63
2018-12-09T18:22:17.490Z,10.17
2018-12-09T18:24:51.546Z,10.57
2018-12-09T18:27:25.380Z,10.40
2018-12-09T18:29:59.194Z,8.53
2018-12-09T18:32:33.505Z,9.23
2018-12-09T18:35:09.705Z,8.90
2018-12-09T18:37:44.202Z,9.00
2018-12-09T18:40:26.110Z,9.90
2018-12-09T18:42:59.727Z,9.70
2018-12-09T18:45:33.815Z,9.57
2018-12-09T18:48:07.751Z,8.73
2018-12-09T18:50:42.072Z,12.00
2018-12-09T18:53:16.205Z,11.50
2018-12-09T18:55:50.209Z,12.27
2018-12-09T18:58:25.067Z,9.97
2018-12-09T19:00:59.192Z,8.70
2018-12-09T19:03:33.539Z,9.40
2018-12-09T19:06:07.505Z,9.90
2018-12-09T19:08:41.822Z,10.37
2018-12-09T19:11:15.893Z,10.23
2018-12-09T19:13:49.751Z,17.00
2018-12-09T19:16:23.885Z,8.90
2018-12-09T19:18:58.031Z,9.47
2018-12-09T19:21:32.843Z,13.13
2018-12-09T19:24:07.214Z,10.73
2018-12-09T19:26:41.156Z,11.85
2018-12-09T19:29:15.304Z,9.87
2018-12-09T19:31:51.258Z,13.70
2018-12-09T19:34:25.274Z,12.90
2018-12-09T19:36:59.288Z,11.97
2018-12-09T19:39:33.083Z,14.63
2018-12-09T19:42:07.173Z,15.77
2018-12-09T19:44:41.134Z,11.83
2018-12-09T19:47:15.570Z,11.53
2018-12-09T19:49:51.249Z,10.80
2018-12-09T19:52:24.998Z,11.63
2018-12-09T19:54:59.597Z,12.50
2018-12-09T19:57:33.701Z,11.57
2018-12-09T20:00:08.633Z,13.57
2018-12-09T20:02:44.241Z,14.47
2018-12-09T20:05:19.052Z,12.13
2018-12-09T20:07:54.004Z,12.77
2018-12-09T20:10:28.047Z,13.83
2018-12-09T20:13:01.427Z,11.40
2018-12-09T20:15:35.440Z,13.10
2018-12-09T20:18:09.387Z,12.82
2018-12-09T20:20:43.494Z,18.43
2018-12-09T20:23:18.836Z,15.73
2018-12-09T20:25:52.762Z,14.33
2018-12-09T20:28:27.428Z,17.13
2018-12-09T20:31:02.915Z,16.80
2018-12-09T20:33:37.348Z,15.87
2018-12-09T20:36:11.309Z,16.37
2018-12-09T20:38:46.326Z,14.57
2018-12-09T20:41:20.320Z,14.97
2018-12-09T20:43:55.559Z,16.07
2018-12-09T20:46:29.916Z,15.30
2018-12-09T20:49:05.116Z,13.03
2018-12-09T20:51:39.147Z,13.17
2018-12-09T20:54:13.066Z,13.37
2018-12-09T20:56:47.217Z,17.10
2018-12-09T20:59:21.207Z,13.27
2018-12-09T21:01:56.886Z,14.03
2018-12-09T21:04:30.957Z,13.10
2018-12-09T21:07:05.806Z,13.40
2018-12-09T21:09:40.080Z,11.83
2018-12-09T21:12:14.260Z,12.97
2018-12-09T21:14:48.118Z,11.47
2018-12-09T21:17:22.204Z,13.60
2018-12-09T21:22:34.137Z,11.83
2018-12-09T21:25:08.798Z,11.25
2018-12-09T21:27:42.676Z,12.17
2018-12-09T21:30:17.846Z,10.70
2018-12-09T21:32:52.563Z,13.27
2018-12-09T21:35:26.556Z,11.37
2018-12-09T21:38:01.286Z,12.37
2018-12-09T21:40:35.277Z,12.33
2018-12-09T21:43:09.484Z,10.77
2018-12-09T21:45:43.609Z,11.27
2018-12-09T21:48:18.548Z,11.23
2018-12-09T21:50:52.740Z,9.33
2018-12-09T21:53:27.808Z,10.47
2018-12-09T21:56:01.755Z,9.97
2018-12-09T21:58:35.632Z,11.97
2018-12-09T22:01:09.864Z,9.95
2018-12-09T22:03:44.927Z,11.43
2018-12-09T22:06:18.928Z,11.47
2018-12-09T22:08:53.252Z,11.17
2018-12-09T22:11:27.102Z,9.67
2018-12-09T22:14:01.511Z,9.80
2018-12-09T22:16:35.946Z,11.47
2018-12-09T22:19:09.600Z,12.93
2018-12-09T22:21:43.796Z,10.97
2018-12-09T22:24:19.953Z,11.93
2018-12-09T22:26:54.979Z,13.60
2018-12-09T22:29:28.781Z,11.40
2018-12-09T22:32:02.761Z,13.63
2018-12-09T22:34:37.259Z,11.85
2018-12-09T22:37:11.258Z,11.73
2018-12-09T22:39:44.949Z,10.50
2018-12-09T22:42:19.281Z,12.40
2018-12-09T22:44:53.441Z,9.77
2018-12-09T22:47:27.540Z,10.53
2018-12-09T22:50:02.180Z,10.60
2018-12-09T22:52:37.148Z,11.40
2018-12-09T22:55:11.909Z,9.53
2018-12-09T22:57:46.267Z,8.97
2018-12-09T23:00:27.545Z,11.97
2018-12-09T23:03:07.464Z,13.60
2018-12-09T23:05:42.645Z,11.57
2018-12-09T23:08:17.604Z,15.57
2018-12-09T23:10:51.428Z,10.57
2018-12-09T23:13:25.531Z,11.00
2018-12-09T23:15:59.454Z,11.53
2018-12-09T23:18:33.480Z,10.30
2018-12-09T23:21:07.862Z,9.87
2018-12-09T23:23:41.913Z,11.07
2018-12-09T23:26:16.617Z,10.33
2018-12-09T23:28:51.368Z,11.03
2018-12-09T23:31:27.270Z,11.30
2018-12-09T23:34:01.575Z,10.50
2018-12-09T23:36:35.719Z,10.07
2018-12-09T23:39:11.064Z,10.63
2018-12-09T23:41:45.442Z,9.60
2018-12-09T23:44:19.253Z,10.53
2018-12-09T23:46:53.100Z,11.47
2018-12-09T23:49:27.227Z,12.77
2018-12-09T23:52:01.333Z,9.83
2018-12-09T23:54:35.273Z,11.33
2018-12-09T23:57:09.395Z,8.97
2018-12-09T23:59:44.730Z,12.20
